Latest Weather Observations for Miles

IDQ60801

Issued at 11:02 am EST Friday 12 February 2016 (issued every 30 minutes, with the page automatically refreshed every 10 minutes)

About weather observations | Map of weather stations | Latest weather observations for QLD | Other Formats
Station Details ID: 042112 Name: MILES CONSTANCE STREET Lat: -26.66 Lon: 150.18 Height: 304.8 m
Data from the previous 72 hours. | See also: Recent months at Miles
Date/Time
EST
Temp
°C
App
Temp
°C
Dew
Point
Rel
Hum
%
Delta-T
°C
Wind Press
QNH
hPa
Press
MSL
hPa
Rain
since 9 am
mm
Dir
 
Spd
km/h
Gust
km/h
Spd
kts
Gust
kts
12/11:00am 27.9 26.9 13.4 40 8.7 S 11 15 6 8 1014.1 - 0.0
12/10:30am 27.1 27.5 14.8 47 7.5 SSW 6 9 3 5 1014.4 - 0.0
12/10:00am 26.8 27.6 14.8 47 7.3 S 4 13 2 7 1014.7 - 0.0
12/09:30am 25.8 26.2 15.2 52 6.5 SE 7 15 4 8 1015.0 - 0.0
12/09:00am 25.4 26.3 16.2 56 5.7 ENE 6 15 3 8 1015.1 1013.3 0.0
12/08:30am 25.0 26.1 16.7 60 5.2 E 6 13 3 7 1015.1 - 0.0
12/08:00am 23.1 25.6 17.2 69 3.7 CALM 0 6 0 3 1015.2 - 0.0
12/07:30am 22.4 24.7 16.7 70 3.5 CALM 0 0 0 0 1015.1 - 0.0
12/07:00am 20.5 22.4 16.8 79 2.3 ENE 2 9 1 5 1014.7 - 0.0
12/06:30am 18.9 21.3 17.1 89 1.1 CALM 0 0 0 0 1014.7 - 0.0
12/06:00am 18.5 20.9 16.9 90 1.0 CALM 0 0 0 0 1014.4 1012.5 0.0
12/05:30am 19.0 21.2 16.5 85 1.5 CALM 0 0 0 0 1014.1 - 0.0
12/05:00am 19.3 21.5 16.5 84 1.7 CALM 0 0 0 0 1013.8 - 0.0
12/04:30am 19.3 21.5 16.5 84 1.7 CALM 0 0 0 0 1013.3 - 0.0
12/04:00am 19.5 21.7 16.5 83 1.8 CALM 0 0 0 0 1013.3 - 0.0
12/03:30am 19.9 22.2 16.8 82 1.9 CALM 0 0 0 0 1013.4 - 0.0
12/03:00am 20.4 22.3 16.6 79 2.3 NNE 2 9 1 5 1013.4 1011.6 0.0
12/02:30am 21.1 22.2 16.5 75 2.8 NE 6 9 3 5 1013.4 - 0.0
12/02:00am 21.4 23.7 16.7 74 2.9 CALM 0 0 0 0 1013.7 - 0.0
12/01:30am 21.8 23.3 16.6 72 3.2 NE 4 11 2 6 1013.7 - 0.0
12/01:00am 22.2 22.8 16.7 71 3.4 NE 9 13 5 7 1013.6 - 0.0
12/12:30am 22.6 24.2 17.0 70 3.5 NE 4 13 2 7 1013.5 - 0.0
12/12:00am 23.2 23.5 16.9 67 3.9 NE 11 20 6 11 1013.6 1011.8 0.0
 
Date/Time
EST
Temp
°C
App
Temp
°C
Dew
Point
Rel
Hum
%
Delta-T
°C
Wind Press
QNH
hPa
Press
MSL
hPa
Rain
since 9 am
mm
Dir
 
Spd
km/h
Gust
km/h
Spd
kts
Gust
kts
11/11:30pm 23.4 25.3 17.7 70 3.6 NNE 4 11 2 6 1013.6 - 0.0
11/11:00pm 24.0 24.3 17.0 65 4.4 NNE 11 19 6 10 1013.4 - 0.0
11/10:30pm 24.4 24.3 16.1 60 5.1 NE 11 20 6 11 1013.4 - 0.0
11/10:00pm 25.5 24.1 13.4 47 7.2 ENE 13 24 7 13 1013.2 - 0.0
11/09:30pm 23.9 26.2 16.7 64 4.5 CALM 0 0 0 0 1012.7 - 0.0
11/09:00pm 25.6 25.6 12.4 43 7.7 ENE 4 9 2 5 1012.4 1010.6 0.0
11/08:30pm 25.9 25.8 12.2 42 8.0 ENE 4 7 2 4 1012.2 - 0.0
11/08:00pm 26.2 27.6 14.5 48 7.1 CALM 0 6 0 3 1012.1 - 0.0
11/07:30pm 27.4 27.6 11.8 38 9.1 E 2 9 1 5 1011.8 - 0.0
11/07:00pm 28.6 28.6 11.2 34 10.1 E 2 9 1 5 1011.6 - 0.0
11/06:30pm 29.7 28.2 10.7 30 11.0 ESE 9 17 5 9 1011.4 - 0.0
11/06:00pm 30.5 29.3 11.5 31 11.2 E 9 17 5 9 1011.1 1009.2 0.0
11/05:30pm 31.3 28.9 10.2 27 12.2 E 13 24 7 13 1010.7 - 0.0
11/05:00pm 31.5 30.2 11.3 29 11.9 SE 9 20 5 11 1010.2 - 0.0
11/04:30pm 31.2 28.0 10.1 27 12.2 ESE 17 22 9 12 1010.2 - 0.0
11/04:00pm 30.7 28.0 10.3 28 11.8 SE 15 22 8 12 1010.3 - 0.0
11/03:30pm 30.6 28.5 11.1 30 11.4 SE 13 17 7 9 1010.5 - 0.0
11/03:00pm 32.1 30.2 10.5 26 12.6 ESE 11 30 6 16 1010.5 1008.6 0.0
11/02:30pm 31.9 29.1 11.4 28 12.1 SE 17 33 9 18 1011.1 - 0.0
11/02:00pm 29.9 28.0 11.7 32 10.7 ESE 13 20 7 11 1011.4 - 0.0
11/01:30pm 31.1 29.4 12.6 32 11.1 SE 13 20 7 11 1011.7 - 0.0
11/01:00pm 30.5 29.4 14.2 37 10.0 ESE 13 26 7 14 1012.3 - 0.0
11/12:30pm 29.6 28.9 14.2 39 9.4 ESE 11 20 6 11 1012.7 - 0.0
11/12:00pm 29.1 28.2 14.8 41 8.8 SSE 13 20 7 11 1013.2 1011.4 0.0
11/11:30am 29.7 29.4 15.4 42 8.9 S 11 19 6 10 1013.5 - 0.0
11/11:00am 28.6 27.7 14.9 43 8.4 E 13 20 7 11 1014.0 - 0.0
11/10:30am 28.0 28.0 15.2 45 7.9 SE 9 20 5 11 1014.2 - 0.0
11/10:00am 27.1 27.0 16.0 50 6.9 E 11 17 6 9 1014.5 - 0.0
11/09:30am 25.7 26.0 16.0 55 6.0 E 9 19 5 10 1014.5 - 0.0
11/09:00am 25.3 25.3 16.3 57 5.6 NE 11 22 6 12 1014.5 1012.6 0.0
11/08:30am 24.9 25.0 16.5 59 5.2 ENE 11 19 6 10 1014.4 - 0.0
11/08:00am 24.1 23.8 16.5 62 4.7 ENE 13 20 7 11 1014.4 - 0.0
11/07:30am 22.1 23.9 17.5 75 2.9 NNE 4 9 2 5 1014.4 - 0.0
11/07:00am 20.3 21.7 17.4 83 1.8 NNE 6 11 3 6 1014.1 - 0.0
11/06:30am 19.2 21.8 17.4 89 1.1 CALM 0 0 0 0 1013.8 - 0.0
11/06:00am 18.1 20.6 17.3 95 0.5 CALM 0 0 0 0 1013.5 1011.7 0.0
11/05:30am 18.3 20.8 17.3 94 0.6 CALM 0 0 0 0 1013.1 - 0.0
11/05:00am 18.7 21.2 17.2 91 0.9 CALM 0 0 0 0 1013.0 - 0.0
11/04:30am 19.3 21.9 17.4 89 1.2 CALM 0 0 0 0 1012.8 - 0.0
11/04:00am 19.8 22.4 17.4 86 1.5 CALM 0 0 0 0 1012.6 - 0.0
11/03:30am 20.3 22.1 17.4 83 1.8 NE 4 9 2 5 1012.4 - 0.0
11/03:00am 20.7 22.9 17.5 82 2.0 NE 2 9 1 5 1012.5 1010.7 0.0
11/02:30am 20.7 23.4 17.7 83 1.9 CALM 0 0 0 0 1012.5 - 0.0
11/02:00am 21.2 23.5 17.7 80 2.2 NNE 2 9 1 5 1012.6 - 0.0
11/01:30am 21.9 24.5 17.4 75 2.8 CALM 0 7 0 4 1013.0 - 0.0
11/01:00am 22.5 23.6 17.0 71 3.4 ENE 7 13 4 7 1013.2 - 0.0
11/12:30am 23.1 23.3 16.8 67 3.9 NE 11 17 6 9 1013.4 - 0.0
11/12:00am 23.4 24.4 16.8 66 4.1 NNE 7 13 4 7 1013.4 1011.6 0.0
 
Date/Time
EST
Temp
°C
App
Temp
°C
Dew
Point
Rel
Hum
%
Delta-T
°C
Wind Press
QNH
hPa
Press
MSL
hPa
Rain
since 9 am
mm
Dir
 
Spd
km/h
Gust
km/h
Spd
kts
Gust
kts
10/11:30pm 23.7 24.5 16.4 63 4.5 NE 7 11 4 6 1013.4 - 0.0
10/11:00pm 23.9 21.6 15.7 60 5.0 NE 22 39 12 21 1013.5 - 0.0
10/10:30pm 22.5 25.3 17.9 75 2.9 CALM 0 0 0 0 1013.2 - 0.0
10/10:00pm 24.1 25.8 16.2 61 4.9 E 2 9 1 5 1013.1 - 0.0
10/09:30pm 23.4 26.1 17.7 70 3.6 CALM 0 0 0 0 1013.2 - 0.0
10/09:00pm 23.8 26.4 17.4 67 4.0 CALM 0 0 0 0 1013.0 1011.2 0.0
10/08:30pm 24.5 26.7 16.4 60 5.0 CALM 0 0 0 0 1012.8 - 0.0
10/08:00pm 24.8 26.9 16.2 58 5.3 CALM 0 0 0 0 1012.6 - 0.0
10/07:30pm 26.0 27.9 15.8 53 6.3 CALM 0 0 0 0 1012.4 - 0.0
10/07:00pm 28.2 28.8 13.1 39 9.0 SSE 2 9 1 5 1012.2 - 0.0
10/06:30pm 29.1 28.5 12.4 35 9.9 ESE 7 15 4 8 1012.0 - 0.0
10/06:00pm 30.0 29.7 12.6 34 10.4 ESE 6 11 3 6 1011.7 1009.8 0.0
10/05:30pm 29.8 28.2 11.6 32 10.7 SE 11 15 6 8 1011.5 - 0.0
10/05:00pm 30.3 28.9 10.9 30 11.3 NE 9 46 5 25 1011.2 - 0.0
10/04:30pm 30.5 29.6 11.5 31 11.2 ESE 7 17 4 9 1011.1 - 0.0
10/04:00pm 31.2 29.1 11.1 29 11.8 SSE 13 24 7 13 1011.2 - 0.0
10/03:30pm 30.7 29.5 11.5 30 11.3 E 9 15 5 8 1011.5 - 0.0
10/03:00pm 30.8 28.3 10.9 29 11.6 ESE 15 28 8 15 1011.8 1009.9 0.0
10/02:30pm 30.1 28.3 10.8 30 11.2 E 11 20 6 11 1012.0 - 0.0
10/02:00pm 29.9 28.1 10.8 30 11.1 SE 11 20 6 11 1012.5 - 0.0
10/01:30pm 30.4 28.4 11.5 31 11.1 ESE 13 20 7 11 1012.9 - 0.0
10/01:00pm 30.1 28.9 11.5 31 10.9 E 9 20 5 11 1013.3 - 0.0
10/12:30pm 29.6 27.8 12.2 34 10.3 SE 13 24 7 13 1013.6 - 0.0
10/12:00pm 29.2 28.2 12.3 35 10.0 SE 9 19 5 10 1014.1 1012.2 0.0
10/11:30am 28.3 26.9 12.2 37 9.5 SE 11 20 6 11 1014.3 - 0.0
10/11:00am 27.8 26.4 12.3 38 9.1 ENE 11 20 6 11 1014.6 - 0.0
10/10:30am 27.4 26.2 12.7 40 8.7 E 11 24 6 13 1014.8 - 0.0
10/10:00am 26.7 25.7 13.5 44 7.9 E 11 20 6 11 1015.2 - 0.0
10/09:30am 25.8 24.4 13.5 46 7.3 E 13 24 7 13 1015.5 - 0.0
10/09:00am 24.9 22.6 13.0 47 7.0 E 17 26 9 14 1015.7 1013.9 0.0
10/08:30am 24.5 22.2 12.9 48 6.8 E 17 28 9 15 1015.8 - 0.0
10/08:00am 23.5 21.8 13.7 54 5.8 E 15 26 8 14 1015.9 - 0.0
10/07:30am 22.5 20.9 13.9 58 5.1 E 15 24 8 13 1015.9 - 0.0
10/07:00am 21.5 21.1 14.2 63 4.3 E 9 20 5 11 1015.2 - 0.0
10/06:30am 20.1 19.3 14.1 68 3.5 E 11 22 6 12 1015.0 - 0.0
10/06:00am 19.3 18.2 14.2 72 3.0 E 13 20 7 11 1014.7 1012.8 0.0
10/05:30am 19.2 18.5 14.2 73 2.9 E 11 20 6 11 1014.5 - 0.0
10/05:00am 19.4 19.3 13.9 70 3.2 E 7 15 4 8 1014.4 - 0.0
10/04:30am 19.9 18.5 13.5 66 3.7 E 13 24 7 13 1014.2 - 0.0
10/04:00am 20.0 18.9 13.2 65 3.9 E 11 22 6 12 1014.1 - 0.0
10/03:30am 19.6 18.9 13.2 66 3.7 E 9 19 5 10 1014.2 - 0.0
10/03:00am 19.4 20.2 13.7 69 3.3 E 2 7 1 4 1014.2 1012.3 0.0
10/02:30am 20.1 20.0 13.8 67 3.7 E 7 15 4 8 1014.1 - 0.0
10/02:00am 20.0 22.1 16.2 79 2.3 CALM 0 2 0 1 1014.1 - 0.0
10/01:30am 21.0 21.8 15.9 72 3.1 E 6 13 3 7 1014.4 - 0.0
10/01:00am 21.6 22.4 15.8 69 3.5 ENE 6 13 3 7 1014.6 - 0.0
10/12:30am 22.1 22.8 16.0 68 3.7 ENE 7 11 4 6 1014.8 - 0.0
10/12:00am 22.6 22.9 16.1 66 4.0 E 9 17 5 9 1015.1 1013.3 0.0
 
Date/Time
EST
Temp
°C
App
Temp
°C
Dew
Point
Rel
Hum
%
Delta-T
°C
Wind Press
QNH
hPa
Press
MSL
hPa
Rain
since 9 am
mm
Dir
 
Spd
km/h
Gust
km/h
Spd
kts
Gust
kts
09/11:30pm 23.3 23.1 15.8 62 4.6 E 11 22 6 12 1015.4 - 0.0
09/11:00pm 23.9 23.6 15.5 59 5.1 E 11 19 6 10 1015.6 - 0.0
09/10:30pm 24.7 23.4 14.8 54 6.0 E 15 24 8 13 1015.6 - 0.0
09/10:00pm 25.4 23.7 13.6 48 7.0 E 15 24 8 13 1015.5 - 0.0
09/09:30pm 25.7 24.6 13.2 46 7.4 E 11 15 6 8 1015.4 - 0.0
09/09:00pm 26.2 25.4 12.8 43 7.9 E 9 15 5 8 1015.2 1013.4 0.0
09/08:30pm 26.7 25.4 12.4 41 8.4 E 11 19 6 10 1014.9 - 0.0
09/08:00pm 26.9 26.5 12.9 42 8.3 E 7 11 4 6 1014.6 - 0.0
09/07:30pm 27.5 27.0 12.6 39 8.8 E 7 11 4 6 1014.4 - 0.0
09/07:00pm 28.3 27.2 11.9 36 9.6 E 9 15 5 8 1014.1 - 0.0
09/06:30pm 29.0 28.1 12.5 36 9.8 E 9 15 5 8 1013.6 - 0.0
09/06:00pm 29.6 28.0 11.5 32 10.6 ESE 11 20 6 11 1013.4 1011.6 0.0
09/05:30pm 30.6 29.0 11.6 31 11.2 ESE 11 19 6 10 1013.1 - 0.0
09/05:00pm 29.9 27.9 11.5 32 10.8 SE 13 19 7 10 1013.1 - 0.0
09/04:30pm 29.9 27.5 11.5 32 10.8 ESE 15 24 8 13 1013.2 - 0.0
09/04:00pm 29.4 27.1 11.7 33 10.4 ESE 15 22 8 12 1013.3 - 0.0
09/03:30pm 29.5 27.0 11.1 32 10.7 E 15 24 8 13 1013.5 - 0.0
09/03:00pm 31.2 30.9 13.2 33 10.9 E 7 15 4 8 1013.8 1012.0 0.0
09/02:30pm 30.5 29.2 12.4 33 10.8 SE 11 20 6 11 1014.1 - 0.0
09/02:00pm 29.7 28.7 13.3 36 9.9 ESE 11 22 6 12 1014.6 - 0.0
09/01:30pm 29.0 26.3 12.9 37 9.6 ENE 19 24 10 13 1014.8 - 0.0
09/01:00pm 29.0 28.1 13.6 38 9.3 ESE 11 24 6 13 1015.1 - 0.0
09/12:30pm 29.6 28.5 14.4 39 9.3 ESE 13 24 7 13 1015.4 - 0.0
09/12:00pm 28.9 27.9 14.7 42 8.7 E 13 20 7 11 1015.7 1013.9 0.0
09/11:30am 28.1 26.8 13.8 41 8.6 E 13 28 7 15 1016.1 - 0.0

Other Formats:

Comma delimited format used in spreadsheet applications
http://www.bom.gov.au/fwo/IDQ60801/IDQ60801.95529.axf

JavaScript Object Notation format (JSON) in row-major order
http://www.bom.gov.au/fwo/IDQ60801/IDQ60801.95529.json